createdAt,value
2023-04-20T00:01:58.401Z,7.06
2023-04-20T00:04:47.251Z,7.09
2023-04-20T00:07:33.538Z,7.08
2023-04-20T00:10:19.992Z,7.08
2023-04-20T00:13:06.533Z,7.07
2023-04-20T00:15:52.778Z,7.07
2023-04-20T00:18:39.797Z,7.07
2023-04-20T00:21:26.605Z,7.08
2023-04-20T00:24:12.983Z,7.11
2023-04-20T00:26:59.382Z,7.11
2023-04-20T00:29:46.940Z,7.11
2023-04-20T00:32:33.619Z,7.10
2023-04-20T00:35:23.067Z,7.09
2023-04-20T00:38:11.287Z,7.08
2023-04-20T00:40:57.743Z,7.06
2023-04-20T00:43:53.594Z,7.05
2023-04-20T00:46:40.800Z,7.07
2023-04-20T00:49:31.298Z,7.08
2023-04-20T00:52:18.605Z,7.09
2023-04-20T00:55:06.552Z,7.06
2023-04-20T00:57:52.971Z,7.09
2023-04-20T01:00:40.120Z,7.08
2023-04-20T01:03:27.178Z,7.06
2023-04-20T01:06:14.953Z,7.04
2023-04-20T01:09:02.834Z,7.01
2023-04-20T01:11:49.487Z,6.98
2023-04-20T01:14:36.267Z,6.96
2023-04-20T01:17:23.586Z,6.94
2023-04-20T01:20:11.912Z,6.92
2023-04-20T01:22:58.094Z,6.88
2023-04-20T01:25:44.657Z,6.83
2023-04-20T01:28:30.818Z,6.78
2023-04-20T01:31:17.457Z,6.74
2023-04-20T01:34:04.157Z,6.67
2023-04-20T01:36:50.557Z,6.61
2023-04-20T01:39:40.384Z,6.54
2023-04-20T01:42:27.069Z,6.48
2023-04-20T01:45:16.427Z,6.43
2023-04-20T01:48:02.762Z,6.37
2023-04-20T01:50:52.092Z,6.31
2023-04-20T01:53:38.564Z,6.24
2023-04-20T01:56:26.997Z,6.17
2023-04-20T01:59:14.226Z,6.09
2023-04-20T02:02:00.446Z,6.03
2023-04-20T02:04:46.824Z,5.96
2023-04-20T02:07:33.010Z,5.89
2023-04-20T02:10:19.557Z,5.83
2023-04-20T02:13:05.983Z,5.77
2023-04-20T02:15:53.516Z,5.73
2023-04-20T02:18:41.715Z,5.70
2023-04-20T02:21:28.805Z,5.67
2023-04-20T02:24:15.218Z,5.67
2023-04-20T02:27:01.896Z,5.66
2023-04-20T02:29:48.176Z,5.66
2023-04-20T02:32:34.884Z,5.66
2023-04-20T02:35:21.833Z,5.65
2023-04-20T02:38:08.620Z,5.63
2023-04-20T02:40:58.327Z,5.62
2023-04-20T02:43:44.852Z,5.61
2023-04-20T02:46:31.631Z,5.60
2023-04-20T02:49:18.609Z,5.59
2023-04-20T02:52:06.298Z,5.59
2023-04-20T02:54:52.990Z,5.57
2023-04-20T02:57:39.334Z,5.55
2023-04-20T03:00:26.225Z,5.55
2023-04-20T03:03:20.837Z,5.54
2023-04-20T03:06:07.577Z,5.54
2023-04-20T03:08:54.370Z,5.54
2023-04-20T03:12:05.013Z,5.52
2023-04-20T03:15:16.490Z,5.49
2023-04-20T03:18:17.176Z,5.48
2023-04-20T03:21:04.244Z,5.46
2023-04-20T03:23:50.538Z,5.48
2023-04-20T03:26:37.008Z,5.48
2023-04-20T03:29:30.815Z,5.46
2023-04-20T03:32:17.464Z,5.47
2023-04-20T03:35:05.983Z,5.46
2023-04-20T03:37:52.469Z,5.45
2023-04-20T03:40:39.186Z,5.45
2023-04-20T03:43:26.757Z,5.42
2023-04-20T03:46:14.093Z,5.44
2023-04-20T03:49:00.341Z,5.43
2023-04-20T03:51:46.664Z,5.43
2023-04-20T03:54:33.230Z,5.42
2023-04-20T03:57:19.600Z,5.40
2023-04-20T04:00:10.157Z,5.40
2023-04-20T04:03:05.742Z,5.39
2023-04-20T04:05:52.396Z,5.38
2023-04-20T04:08:38.846Z,5.39
2023-04-20T04:11:26.092Z,5.40
2023-04-20T04:14:12.775Z,5.40
2023-04-20T04:16:59.059Z,5.41
2023-04-20T04:19:45.276Z,5.42
2023-04-20T04:22:31.622Z,5.44
2023-04-20T04:25:42.100Z,5.47
2023-04-20T04:28:30.996Z,5.52
2023-04-20T04:31:28.496Z,5.56
2023-04-20T04:34:18.364Z,5.61
2023-04-20T04:37:08.055Z,5.68
2023-04-20T04:40:14.127Z,5.75
2023-04-20T04:43:02.183Z,5.82
2023-04-20T04:45:49.310Z,5.87
2023-04-20T04:48:37.375Z,5.94
2023-04-20T04:51:23.546Z,6.02
2023-04-20T04:54:10.206Z,6.12
2023-04-20T04:56:57.728Z,6.21
2023-04-20T04:59:43.984Z,6.31
2023-04-20T05:02:31.530Z,6.41
2023-04-20T05:05:21.046Z,6.53
2023-04-20T05:08:07.690Z,6.65
2023-04-20T05:10:53.941Z,6.78
2023-04-20T05:13:40.959Z,6.90
2023-04-20T05:16:26.988Z,7.04
2023-04-20T05:19:13.274Z,7.17
2023-04-20T05:21:59.757Z,7.29
2023-04-20T05:24:46.595Z,7.42
2023-04-20T05:27:33.564Z,7.55
2023-04-20T05:30:21.790Z,7.68
2023-04-20T05:33:08.777Z,7.85
2023-04-20T05:35:57.366Z,8.05
2023-04-20T05:38:43.574Z,8.31
2023-04-20T05:41:29.930Z,8.71
2023-04-20T05:44:16.717Z,9.48
2023-04-20T05:47:20.227Z,10.75
2023-04-20T05:50:08.034Z,12.09
2023-04-20T05:52:53.981Z,13.25
2023-04-20T05:55:40.374Z,14.40
2023-04-20T05:58:26.887Z,15.47
2023-04-20T06:01:13.922Z,16.42
2023-04-20T06:04:00.775Z,17.18
2023-04-20T06:06:47.547Z,18.03
2023-04-20T06:09:34.861Z,18.78
2023-04-20T06:12:21.196Z,19.17
2023-04-20T06:15:10.184Z,19.80
2023-04-20T06:17:57.101Z,20.50
2023-04-20T06:20:43.954Z,21.17
2023-04-20T06:23:30.488Z,21.70
2023-04-20T06:26:16.978Z,22.02
2023-04-20T06:29:03.213Z,22.52
2023-04-20T06:31:49.571Z,22.99
2023-04-20T06:34:35.920Z,23.45
2023-04-20T06:37:22.323Z,23.93
2023-04-20T06:40:09.035Z,24.25
2023-04-20T06:42:55.833Z,24.60
2023-04-20T06:45:41.954Z,24.97
2023-04-20T06:48:32.576Z,25.28
2023-04-20T06:51:19.389Z,25.64
2023-04-20T06:54:05.744Z,25.87
2023-04-20T06:56:51.761Z,26.15
2023-04-20T06:59:38.508Z,26.17
2023-04-20T07:02:25.656Z,26.44
2023-04-20T07:05:13.482Z,26.74
2023-04-20T07:08:00.040Z,26.82
2023-04-20T07:10:46.499Z,26.77
2023-04-20T07:13:33.811Z,26.72
2023-04-20T07:16:20.335Z,26.80
2023-04-20T07:19:06.784Z,26.95
2023-04-20T07:21:53.307Z,27.19
2023-04-20T07:24:39.604Z,27.38
2023-04-20T07:27:27.347Z,27.49
2023-04-20T07:30:13.965Z,27.61
2023-04-20T07:33:00.275Z,27.71
2023-04-20T07:35:46.991Z,27.80
2023-04-20T07:38:33.438Z,27.76
2023-04-20T07:41:22.398Z,27.64
2023-04-20T07:44:08.731Z,27.72
2023-04-20T07:46:56.979Z,27.61
2023-04-20T07:49:43.517Z,27.38
2023-04-20T07:52:30.072Z,27.32
2023-04-20T07:55:16.805Z,27.31
2023-04-20T07:58:03.307Z,27.22
2023-04-20T08:00:49.476Z,27.20
2023-04-20T08:03:36.050Z,27.21
2023-04-20T08:06:22.467Z,27.42
2023-04-20T08:09:09.685Z,27.64
2023-04-20T08:11:57.613Z,27.65
2023-04-20T08:14:44.655Z,27.73
2023-04-20T08:17:31.617Z,27.70
2023-04-20T08:20:19.227Z,27.80
2023-04-20T08:23:06.034Z,27.96
2023-04-20T08:25:55.640Z,28.13
2023-04-20T08:28:43.932Z,28.25
2023-04-20T08:31:30.575Z,28.17
2023-04-20T08:34:19.696Z,28.20
2023-04-20T08:37:06.464Z,28.37
2023-04-20T08:39:53.496Z,28.54
2023-04-20T08:42:39.998Z,28.69
2023-04-20T08:45:26.690Z,28.79
2023-04-20T08:48:13.233Z,28.87
2023-04-20T08:51:00.532Z,28.69
2023-04-20T08:53:46.742Z,28.78
2023-04-20T08:56:39.125Z,28.86
2023-04-20T08:59:26.793Z,28.82
2023-04-20T09:02:14.290Z,28.74
2023-04-20T09:05:03.514Z,28.76
2023-04-20T09:07:58.856Z,28.88
2023-04-20T09:10:45.287Z,29.06
2023-04-20T09:13:32.832Z,29.10
2023-04-20T09:16:19.769Z,29.07
2023-04-20T09:19:08.385Z,29.07
2023-04-20T09:22:28.665Z,29.14
2023-04-20T09:25:20.630Z,29.26
2023-04-20T09:28:08.535Z,29.41
2023-04-20T09:30:55.009Z,29.52
2023-04-20T09:33:43.319Z,29.60
2023-04-20T09:36:39.285Z,29.63
2023-04-20T09:39:26.540Z,29.76
2023-04-20T09:42:15.895Z,29.85
2023-04-20T09:45:03.707Z,29.81
2023-04-20T09:47:54.440Z,29.83
2023-04-20T09:50:49.281Z,29.90
2023-04-20T09:53:39.837Z,30.08
2023-04-20T09:56:32.813Z,30.20
2023-04-20T09:59:21.469Z,30.28
2023-04-20T10:02:11.180Z,30.50
2023-04-20T10:04:58.976Z,30.73
2023-04-20T10:07:45.511Z,30.78
2023-04-20T10:10:48.320Z,30.94
2023-04-20T10:13:36.998Z,31.05
2023-04-20T10:16:24.109Z,31.00
2023-04-20T10:19:10.603Z,30.95
2023-04-20T10:21:57.191Z,31.11
2023-04-20T10:24:44.814Z,31.14
2023-04-20T10:27:32.029Z,31.18
2023-04-20T10:30:19.300Z,31.07
2023-04-20T10:33:12.137Z,30.58
2023-04-20T10:35:58.845Z,30.24
2023-04-20T10:38:45.280Z,30.10
2023-04-20T10:41:31.628Z,30.10
2023-04-20T10:44:19.704Z,29.97
2023-04-20T10:47:06.752Z,29.63
2023-04-20T10:49:53.319Z,29.24
2023-04-20T10:52:43.056Z,29.17
2023-04-20T10:55:30.100Z,29.20
2023-04-20T10:58:24.337Z,29.26
2023-04-20T11:01:11.016Z,29.21
2023-04-20T11:03:57.657Z,29.08
2023-04-20T11:06:47.470Z,28.95
2023-04-20T11:09:37.649Z,28.92
2023-04-20T11:12:24.028Z,28.84
2023-04-20T11:15:10.799Z,28.85
2023-04-20T11:18:09.017Z,28.86
2023-04-20T11:20:56.292Z,28.71
2023-04-20T11:23:44.130Z,28.32
2023-04-20T11:26:37.758Z,27.82
2023-04-20T11:29:35.120Z,27.28
2023-04-20T11:32:24.405Z,26.73
2023-04-20T11:35:11.821Z,26.26
2023-04-20T11:37:59.186Z,26.03
2023-04-20T11:40:45.876Z,25.78
2023-04-20T11:43:32.839Z,25.30
2023-04-20T11:46:19.919Z,24.88
2023-04-20T11:49:06.493Z,24.47
2023-04-20T11:51:53.287Z,23.99
2023-04-20T11:54:39.787Z,23.43
2023-04-20T11:57:26.089Z,23.09
2023-04-20T12:00:13.626Z,22.77
2023-04-20T12:03:01.504Z,22.35
2023-04-20T12:05:48.259Z,21.67
2023-04-20T12:08:35.987Z,21.07
2023-04-20T12:11:22.821Z,20.66
2023-04-20T12:14:09.417Z,20.27
2023-04-20T12:16:58.550Z,19.91
2023-04-20T12:19:45.688Z,19.51
2023-04-20T12:22:32.164Z,19.12
2023-04-20T12:25:21.230Z,18.89
2023-04-20T12:28:07.861Z,18.60
2023-04-20T12:30:55.317Z,18.40
2023-04-20T12:33:42.849Z,18.19
2023-04-20T12:36:34.397Z,18.11
2023-04-20T12:39:21.302Z,18.03
2023-04-20T12:42:07.732Z,17.94
2023-04-20T12:44:55.605Z,17.86
2023-04-20T12:47:41.922Z,17.84
2023-04-20T12:50:28.147Z,17.87
2023-04-20T12:53:14.884Z,17.85
2023-04-20T12:56:02.744Z,17.72
2023-04-20T12:58:49.056Z,17.57
2023-04-20T13:01:35.757Z,17.49
2023-04-20T13:04:23.470Z,17.43
2023-04-20T13:07:10.100Z,17.38
2023-04-20T13:09:57.111Z,17.23
2023-04-20T13:12:44.246Z,17.14
2023-04-20T13:15:39.222Z,17.03
2023-04-20T13:18:26.173Z,16.92
2023-04-20T13:21:12.931Z,16.89
2023-04-20T13:23:59.912Z,16.85
2023-04-20T13:26:46.480Z,16.73
2023-04-20T13:29:38.021Z,16.54
2023-04-20T13:32:25.904Z,16.56
2023-04-20T13:35:17.142Z,16.65
2023-04-20T13:38:05.623Z,16.68
2023-04-20T13:40:52.344Z,16.75
2023-04-20T13:43:38.791Z,16.71
2023-04-20T13:46:24.984Z,16.66
2023-04-20T13:49:15.003Z,16.63
2023-04-20T13:52:01.480Z,16.70
2023-04-20T13:54:48.699Z,16.78
2023-04-20T13:57:35.394Z,16.85
2023-04-20T14:00:23.009Z,16.90
2023-04-20T14:03:10.621Z,16.78
2023-04-20T14:05:58.731Z,16.68
2023-04-20T14:08:46.569Z,16.58
2023-04-20T14:11:34.677Z,16.51
2023-04-20T14:14:22.013Z,16.53
2023-04-20T14:17:10.943Z,16.59
2023-04-20T14:19:58.299Z,16.63
2023-04-20T14:22:46.158Z,16.63
2023-04-20T14:25:36.168Z,16.62
2023-04-20T14:28:23.437Z,16.59
2023-04-20T14:31:10.147Z,16.60
2023-04-20T14:33:56.802Z,16.54
2023-04-20T14:36:43.238Z,16.51
2023-04-20T14:39:29.957Z,16.55
2023-04-20T14:42:17.716Z,16.63
2023-04-20T14:45:05.172Z,16.64
2023-04-20T14:48:16.334Z,16.67
2023-04-20T14:51:05.409Z,16.60
2023-04-20T14:53:51.928Z,16.62
2023-04-20T14:56:38.232Z,16.61
2023-04-20T14:59:26.363Z,16.50
2023-04-20T15:02:13.625Z,16.43
2023-04-20T15:05:00.490Z,16.39
2023-04-20T15:07:50.038Z,16.32
2023-04-20T15:10:38.010Z,16.28
2023-04-20T15:13:25.735Z,16.30
2023-04-20T15:16:14.843Z,16.31
2023-04-20T15:19:02.724Z,16.24
2023-04-20T15:21:49.944Z,16.12
2023-04-20T15:24:36.456Z,16.04
2023-04-20T15:27:22.819Z,16.02
2023-04-20T15:30:10.282Z,15.94
2023-04-20T15:33:04.542Z,15.81
2023-04-20T15:35:51.893Z,15.74
2023-04-20T15:38:39.839Z,15.74
2023-04-20T15:41:27.738Z,15.71
2023-04-20T15:44:14.390Z,15.68
2023-04-20T15:47:01.752Z,15.67
2023-04-20T15:49:48.423Z,15.61
2023-04-20T15:52:35.005Z,15.51
2023-04-20T15:55:21.633Z,15.36
2023-04-20T15:58:08.442Z,15.19
2023-04-20T16:00:56.408Z,15.09
2023-04-20T16:03:45.318Z,14.98
2023-04-20T16:06:32.335Z,14.86
2023-04-20T16:09:19.342Z,14.77
2023-04-20T16:12:06.478Z,14.71
2023-04-20T16:14:53.984Z,14.62
2023-04-20T16:17:40.972Z,14.53
2023-04-20T16:20:27.548Z,14.48
2023-04-20T16:23:15.401Z,14.34
2023-04-20T16:26:03.468Z,14.22
2023-04-20T16:28:50.612Z,14.13
2023-04-20T16:31:37.051Z,14.04
2023-04-20T16:34:23.857Z,13.96
2023-04-20T16:37:10.518Z,13.84
2023-04-20T16:39:57.149Z,13.71
2023-04-20T16:42:44.084Z,13.54
2023-04-20T16:45:33.150Z,13.44
2023-04-20T16:48:20.180Z,13.34
2023-04-20T16:51:07.171Z,13.22
2023-04-20T16:53:53.697Z,13.04
2023-04-20T16:56:41.337Z,12.81
2023-04-20T16:59:28.050Z,12.63
2023-04-20T17:02:14.150Z,12.48
2023-04-20T17:05:01.155Z,12.32
2023-04-20T17:07:51.443Z,12.17
2023-04-20T17:10:38.771Z,12.10
2023-04-20T17:13:25.543Z,11.98
2023-04-20T17:16:12.242Z,11.87
2023-04-20T17:18:59.345Z,11.71
2023-04-20T17:21:49.548Z,11.57
2023-04-20T17:24:36.191Z,11.42
2023-04-20T17:27:22.808Z,11.30
2023-04-20T17:30:10.114Z,11.18
2023-04-20T17:32:56.841Z,11.08
2023-04-20T17:35:45.879Z,10.98
2023-04-20T17:38:35.999Z,10.89
2023-04-20T17:41:22.351Z,10.78
2023-04-20T17:44:12.017Z,10.68
2023-04-20T17:47:00.808Z,10.59
2023-04-20T17:49:47.432Z,10.52
2023-04-20T17:52:33.957Z,10.45
2023-04-20T17:55:20.896Z,10.37
2023-04-20T17:58:07.265Z,10.29
2023-04-20T18:00:54.141Z,10.21
2023-04-20T18:03:40.742Z,10.16
2023-04-20T18:06:29.378Z,10.11
2023-04-20T18:09:17.365Z,10.04
2023-04-20T18:12:07.251Z,9.98
2023-04-20T18:14:56.138Z,9.92
2023-04-20T18:17:44.939Z,9.86
2023-04-20T18:20:32.493Z,9.81
2023-04-20T18:23:18.797Z,9.78
2023-04-20T18:26:05.324Z,9.75
2023-04-20T18:28:51.696Z,9.71
2023-04-20T18:31:38.014Z,9.64
2023-04-20T18:34:29.148Z,9.59
2023-04-20T18:37:15.777Z,9.55
2023-04-20T18:40:04.048Z,9.50
2023-04-20T18:42:50.668Z,9.46
2023-04-20T18:45:37.220Z,9.43
2023-04-20T18:48:24.791Z,9.37
2023-04-20T18:51:11.217Z,9.34
2023-04-20T18:53:58.296Z,9.32
2023-04-20T18:56:45.265Z,9.30
2023-04-20T18:59:31.819Z,9.30
2023-04-20T19:02:20.654Z,9.28
2023-04-20T19:05:07.917Z,9.23
2023-04-20T19:07:55.539Z,9.25
2023-04-20T19:10:42.608Z,9.23
2023-04-20T19:13:29.203Z,9.20
2023-04-20T19:16:15.499Z,9.18
2023-04-20T19:19:03.310Z,9.17
2023-04-20T19:21:50.245Z,9.15
2023-04-20T19:24:36.922Z,9.15
2023-04-20T19:27:23.305Z,9.13
2023-04-20T19:30:11.008Z,9.11
2023-04-20T19:33:02.279Z,9.09
2023-04-20T19:35:50.262Z,9.06
2023-04-20T19:38:37.964Z,9.03
2023-04-20T19:41:25.626Z,9.01
2023-04-20T19:44:13.837Z,8.99
2023-04-20T19:47:00.424Z,8.97
2023-04-20T19:49:46.975Z,8.94
2023-04-20T19:52:34.502Z,8.92
2023-04-20T19:55:20.975Z,8.88
2023-04-20T19:58:08.723Z,8.83
2023-04-20T20:00:55.955Z,8.78
2023-04-20T20:03:42.750Z,8.73
2023-04-20T20:06:29.275Z,8.67
2023-04-20T20:09:23.221Z,8.62
2023-04-20T20:12:14.342Z,8.56
2023-04-20T20:15:04.244Z,8.51
2023-04-20T20:17:54.725Z,8.46
2023-04-20T20:20:44.713Z,8.40
2023-04-20T20:23:33.111Z,8.36
2023-04-20T20:26:19.468Z,8.31
2023-04-20T20:29:06.445Z,8.28
2023-04-20T20:31:57.626Z,8.23
2023-04-20T20:34:45.357Z,8.17
2023-04-20T20:37:35.271Z,8.09
2023-04-20T20:40:21.672Z,8.01
2023-04-20T20:43:08.106Z,7.92
2023-04-20T20:45:56.050Z,7.83
2023-04-20T20:48:43.270Z,7.75
2023-04-20T20:51:30.975Z,7.67
2023-04-20T20:54:17.703Z,7.60
2023-04-20T20:57:04.250Z,7.54
2023-04-20T20:59:53.420Z,7.46
2023-04-20T21:02:42.005Z,7.40
2023-04-20T21:05:29.122Z,7.32
2023-04-20T21:08:16.693Z,7.27
2023-04-20T21:11:03.623Z,7.22
2023-04-20T21:13:50.113Z,7.16
2023-04-20T21:16:39.073Z,7.11
2023-04-20T21:19:26.155Z,7.07
2023-04-20T21:22:12.961Z,7.04
2023-04-20T21:25:02.192Z,7.00
2023-04-20T21:27:48.942Z,6.96
2023-04-20T21:30:36.833Z,6.93
2023-04-20T21:33:24.916Z,6.92
2023-04-20T21:36:11.128Z,6.91
2023-04-20T21:38:57.862Z,6.88
2023-04-20T21:41:44.698Z,6.86
2023-04-20T21:44:31.770Z,6.84
2023-04-20T21:47:18.203Z,6.82
2023-04-20T21:50:05.780Z,6.81
2023-04-20T21:52:54.280Z,6.80
2023-04-20T21:55:42.367Z,6.80
2023-04-20T21:58:28.762Z,6.80
2023-04-20T22:01:16.145Z,6.79
2023-04-20T22:04:04.022Z,6.78
2023-04-20T22:06:52.965Z,6.78
2023-04-20T22:09:41.219Z,6.78
2023-04-20T22:12:36.444Z,6.78
2023-04-20T22:15:27.087Z,6.81
2023-04-20T22:18:15.169Z,6.84
2023-04-20T22:21:02.197Z,6.87
2023-04-20T22:23:48.985Z,6.94
2023-04-20T22:26:38.019Z,6.99
2023-04-20T22:29:24.453Z,7.04
2023-04-20T22:32:11.360Z,7.10
2023-04-20T22:34:57.965Z,7.12
2023-04-20T22:37:46.170Z,7.17
2023-04-20T22:40:32.824Z,7.22
2023-04-20T22:43:20.968Z,7.27
2023-04-20T22:46:07.603Z,7.30
2023-04-20T22:48:56.043Z,7.29
2023-04-20T22:51:42.638Z,7.29
2023-04-20T22:54:30.082Z,7.30
2023-04-20T22:57:20.725Z,7.29
2023-04-20T23:00:09.933Z,7.29
2023-04-20T23:02:56.545Z,7.28
2023-04-20T23:05:43.759Z,7.26
2023-04-20T23:08:32.878Z,7.23
2023-04-20T23:11:20.350Z,7.22
2023-04-20T23:14:08.428Z,7.18
2023-04-20T23:16:54.813Z,7.14
2023-04-20T23:19:41.228Z,7.07
2023-04-20T23:22:27.526Z,6.99
2023-04-20T23:25:14.157Z,6.93
2023-04-20T23:28:00.770Z,6.85
2023-04-20T23:30:47.443Z,6.76
2023-04-20T23:33:33.881Z,6.69
2023-04-20T23:36:20.784Z,6.61
2023-04-20T23:39:07.614Z,6.50
2023-04-20T23:41:53.652Z,6.45
2023-04-20T23:44:40.130Z,6.39
2023-04-20T23:47:26.403Z,6.33
2023-04-20T23:50:12.962Z,6.25
2023-04-20T23:53:00.546Z,6.18
2023-04-20T23:55:51.190Z,6.13
2023-04-20T23:58:38.003Z,6.06
